sensor_id;sensor_type;location;lat;lon;timestamp;pressure;altitude;pressure_sealevel;temperature;humidity
40075;BME280;26529;51.530;11.754;2023-04-27T00:02:01;100367.56;;;20.00;45.99
40075;BME280;26529;51.530;11.754;2023-04-27T00:04:27;100372.00;;;19.99;45.96
40075;BME280;26529;51.530;11.754;2023-04-27T00:06:52;100368.38;;;20.00;45.99
40075;BME280;26529;51.530;11.754;2023-04-27T00:09:18;100366.69;;;19.99;45.79
40075;BME280;26529;51.530;11.754;2023-04-27T00:11:43;100372.00;;;19.99;45.68
40075;BME280;26529;51.530;11.754;2023-04-27T00:14:09;100366.69;;;19.99;45.95
40075;BME280;26529;51.530;11.754;2023-04-27T00:16:34;100364.03;;;19.99;45.71
40075;BME280;26529;51.530;11.754;2023-04-27T00:19:00;100366.78;;;19.98;45.94
40075;BME280;26529;51.530;11.754;2023-04-27T00:21:25;100369.44;;;19.98;45.87
40075;BME280;26529;51.530;11.754;2023-04-27T00:23:51;100370.31;;;19.98;45.78
40075;BME280;26529;51.530;11.754;2023-04-27T00:26:16;100366.78;;;19.98;45.93
40075;BME280;26529;51.530;11.754;2023-04-27T00:28:46;100370.41;;;19.97;45.98
40075;BME280;26529;51.530;11.754;2023-04-27T00:31:12;100370.31;;;19.98;45.99
40075;BME280;26529;51.530;11.754;2023-04-27T00:33:37;100367.75;;;19.97;45.95
40075;BME280;26529;51.530;11.754;2023-04-27T00:36:03;100370.31;;;19.98;45.92
40075;BME280;26529;51.530;11.754;2023-04-27T00:38:29;100372.22;;;19.96;45.82
40075;BME280;26529;51.530;11.754;2023-04-27T00:41:05;100367.75;;;19.97;45.80
40075;BME280;26529;51.530;11.754;2023-04-27T00:43:31;100367.75;;;19.97;45.93
40075;BME280;26529;51.530;11.754;2023-04-27T00:45:57;100367.75;;;19.97;45.88
40075;BME280;26529;51.530;11.754;2023-04-27T00:48:23;100370.50;;;19.95;45.61
40075;BME280;26529;51.530;11.754;2023-04-27T00:50:49;100366.91;;;19.96;45.85
40075;BME280;26529;51.530;11.754;2023-04-27T00:53:15;100370.50;;;19.95;45.93
40075;BME280;26529;51.530;11.754;2023-04-27T00:55:41;100369.63;;;19.95;45.91
40075;BME280;26529;51.530;11.754;2023-04-27T00:58:07;100372.22;;;19.96;45.75
40075;BME280;26529;51.530;11.754;2023-04-27T01:00:34;100370.50;;;19.95;45.88
40075;BME280;26529;51.530;11.754;2023-04-27T01:03:00;100375.81;;;19.95;45.85
40075;BME280;26529;51.530;11.754;2023-04-27T01:05:27;100370.50;;;19.95;45.83
40075;BME280;26529;51.530;11.754;2023-04-27T01:07:52;100371.41;;;19.94;45.70
40075;BME280;26529;51.530;11.754;2023-04-27T01:10:18;100371.41;;;19.94;45.81
40075;BME280;26529;51.530;11.754;2023-04-27T01:12:44;100370.59;;;19.93;45.71
40075;BME280;26529;51.530;11.754;2023-04-27T01:15:10;100375.03;;;19.93;45.93
40075;BME280;26529;51.530;11.754;2023-04-27T01:17:35;100367.06;;;19.93;45.80
40075;BME280;26529;51.530;11.754;2023-04-27T01:20:03;100375.13;;;19.91;45.87
40075;BME280;26529;51.530;11.754;2023-04-27T01:22:31;100375.13;;;19.91;45.95
40075;BME280;26529;51.530;11.754;2023-04-27T01:24:57;100369.81;;;19.91;45.85
40075;BME280;26529;51.530;11.754;2023-04-27T01:27:22;100375.13;;;19.91;45.94
40075;BME280;26529;51.530;11.754;2023-04-27T01:29:48;100373.34;;;19.92;45.85
40075;BME280;26529;51.530;11.754;2023-04-27T01:32:13;100375.13;;;19.91;45.83
40075;BME280;26529;51.530;11.754;2023-04-27T01:34:39;100370.69;;;19.92;45.85
40075;BME280;26529;51.530;11.754;2023-04-27T01:37:04;100368.97;;;19.91;45.85
40075;BME280;26529;51.530;11.754;2023-04-27T01:39:30;100371.63;;;19.91;45.74
40075;BME280;26529;51.530;11.754;2023-04-27T01:41:55;100370.69;;;19.92;45.81
40075;BME280;26529;51.530;11.754;2023-04-27T01:44:21;100372.47;;;19.91;45.72
40075;BME280;26529;51.530;11.754;2023-04-27T01:46:48;100372.59;;;19.90;46.01
40075;BME280;26529;51.530;11.754;2023-04-27T01:49:15;100375.25;;;19.90;45.86
40075;BME280;26529;51.530;11.754;2023-04-27T01:51:40;100378.88;;;19.89;45.65
40075;BME280;26529;51.530;11.754;2023-04-27T01:54:06;100381.41;;;19.90;45.92
40075;BME280;26529;51.530;11.754;2023-04-27T01:56:31;100389.53;;;19.89;46.04
40075;BME280;26529;51.530;11.754;2023-04-27T01:58:57;100385.91;;;19.90;45.75
40075;BME280;26529;51.530;11.754;2023-04-27T02:01:23;100386.84;;;19.89;45.86
40075;BME280;26529;51.530;11.754;2023-04-27T02:03:48;100397.50;;;19.89;45.85
40075;BME280;26529;51.530;11.754;2023-04-27T02:06:14;100394.06;;;19.87;45.86
40075;BME280;26529;51.530;11.754;2023-04-27T02:08:39;100400.16;;;19.89;45.77
40075;BME280;26529;51.530;11.754;2023-04-27T02:11:07;100395.78;;;19.88;45.83
40075;BME280;26529;51.530;11.754;2023-04-27T02:13:32;100410.81;;;19.89;45.49
40075;BME280;26529;51.530;11.754;2023-04-27T02:15:58;100398.44;;;19.88;45.81
40075;BME280;26529;51.530;11.754;2023-04-27T02:18:26;100392.28;;;19.87;46.03
40075;BME280;26529;51.530;11.754;2023-04-27T02:20:52;100394.06;;;19.87;45.84
40075;BME280;26529;51.530;11.754;2023-04-27T02:23:17;100399.38;;;19.87;45.84
40075;BME280;26529;51.530;11.754;2023-04-27T02:25:43;100395.78;;;19.88;45.74
40075;BME280;26529;51.530;11.754;2023-04-27T02:28:11;100404.72;;;19.87;45.79
40075;BME280;26529;51.530;11.754;2023-04-27T02:30:38;100398.56;;;19.86;45.60
40075;BME280;26529;51.530;11.754;2023-04-27T02:33:03;100392.38;;;19.86;45.84
40075;BME280;26529;51.530;11.754;2023-04-27T02:35:30;100403.00;;;19.86;45.81
40075;BME280;26529;51.530;11.754;2023-04-27T02:37:58;100408.31;;;19.86;45.61
40075;BME280;26529;51.530;11.754;2023-04-27T02:40:24;100410.03;;;19.87;45.68
40075;BME280;26529;51.530;11.754;2023-04-27T02:42:49;100412.81;;;19.85;45.80
40075;BME280;26529;51.530;11.754;2023-04-27T02:45:15;100410.91;;;19.87;45.71
40075;BME280;26529;51.530;11.754;2023-04-27T02:47:41;100411.00;;;19.86;45.61
40075;BME280;26529;51.530;11.754;2023-04-27T02:50:07;100410.03;;;19.87;45.74
40075;BME280;26529;51.530;11.754;2023-04-27T02:52:33;100414.59;;;19.85;45.76
40075;BME280;26529;51.530;11.754;2023-04-27T02:54:59;100418.13;;;19.85;45.66
40075;BME280;26529;51.530;11.754;2023-04-27T02:57:24;100413.75;;;19.84;45.80
40075;BME280;26529;51.530;11.754;2023-04-27T02:59:50;100414.59;;;19.85;45.89
40075;BME280;26529;51.530;11.754;2023-04-27T03:02:16;100418.97;;;19.86;45.71
40075;BME280;26529;51.530;11.754;2023-04-27T03:04:41;100414.50;;;19.86;45.78
40075;BME280;26529;51.530;11.754;2023-04-27T03:07:07;100421.72;;;19.84;45.76
40075;BME280;26529;51.530;11.754;2023-04-27T03:09:33;100419.19;;;19.83;45.69
40075;BME280;26529;51.530;11.754;2023-04-27T03:11:58;100427.16;;;19.83;45.86
40075;BME280;26529;51.530;11.754;2023-04-27T03:14:25;100423.53;;;19.84;45.85
40075;BME280;26529;51.530;11.754;2023-04-27T03:16:51;100424.50;;;19.83;45.81
40075;BME280;26529;51.530;11.754;2023-04-27T03:19:16;100429.81;;;19.83;45.82
40075;BME280;26529;51.530;11.754;2023-04-27T03:21:42;100432.50;;;19.83;45.88
40075;BME280;26529;51.530;11.754;2023-04-27T03:24:07;100440.47;;;19.83;45.81
40075;BME280;26529;51.530;11.754;2023-04-27T03:26:33;100439.50;;;19.84;45.79
40075;BME280;26529;51.530;11.754;2023-04-27T03:28:58;100436.84;;;19.84;45.91
40075;BME280;26529;51.530;11.754;2023-04-27T03:31:27;100435.16;;;19.83;45.71
40075;BME280;26529;51.530;11.754;2023-04-27T03:33:52;100449.38;;;19.82;45.88
40075;BME280;26529;51.530;11.754;2023-04-27T03:36:18;100444.91;;;19.82;45.76
40075;BME280;26529;51.530;11.754;2023-04-27T03:38:43;100448.44;;;19.83;45.77
40075;BME280;26529;51.530;11.754;2023-04-27T03:41:08;100452.03;;;19.82;45.84
40075;BME280;26529;51.530;11.754;2023-04-27T03:43:34;100444.06;;;19.82;45.82
40075;BME280;26529;51.530;11.754;2023-04-27T03:46:01;100449.38;;;19.82;45.75
40075;BME280;26529;51.530;11.754;2023-04-27T03:48:27;100456.53;;;19.81;45.83
40075;BME280;26529;51.530;11.754;2023-04-27T03:50:54;100453.00;;;19.80;45.81
40075;BME280;26529;51.530;11.754;2023-04-27T03:53:19;100450.34;;;19.80;45.71
40075;BME280;26529;51.530;11.754;2023-04-27T03:55:45;100455.66;;;19.80;45.70
40075;BME280;26529;51.530;11.754;2023-04-27T03:58:13;100458.31;;;19.80;45.77
40075;BME280;26529;51.530;11.754;2023-04-27T04:00:59;100457.47;;;19.80;45.85
40075;BME280;26529;51.530;11.754;2023-04-27T04:03:24;100459.19;;;19.81;45.83
40075;BME280;26529;51.530;11.754;2023-04-27T04:05:50;100463.63;;;19.80;45.84
40075;BME280;26529;51.530;11.754;2023-04-27T04:08:15;100457.56;;;19.78;45.89
40075;BME280;26529;51.530;11.754;2023-04-27T04:10:41;100455.78;;;19.79;45.96
40075;BME280;26529;51.530;11.754;2023-04-27T04:13:08;100457.56;;;19.78;45.78
40075;BME280;26529;51.530;11.754;2023-04-27T04:15:35;100461.09;;;19.79;45.69
40075;BME280;26529;51.530;11.754;2023-04-27T04:18:00;100460.97;;;19.80;45.74
40075;BME280;26529;51.530;11.754;2023-04-27T04:20:26;100462.03;;;19.78;45.76
40075;BME280;26529;51.530;11.754;2023-04-27T04:22:53;100469.16;;;19.77;45.78
40075;BME280;26529;51.530;11.754;2023-04-27T04:25:19;100461.09;;;19.79;45.74
40075;BME280;26529;51.530;11.754;2023-04-27T04:27:45;100467.25;;;19.79;45.75
40075;BME280;26529;51.530;11.754;2023-04-27T04:30:12;100470.88;;;19.78;45.59
40075;BME280;26529;51.530;11.754;2023-04-27T04:32:38;100472.66;;;19.78;45.62
40075;BME280;26529;51.530;11.754;2023-04-27T04:35:05;100474.50;;;19.77;45.69
40075;BME280;26529;51.530;11.754;2023-04-27T04:37:34;100477.91;;;19.79;45.78
40075;BME280;26529;51.530;11.754;2023-04-27T04:40:05;100478.84;;;19.78;45.65
40075;BME280;26529;51.530;11.754;2023-04-27T04:42:34;100477.91;;;19.79;45.64
40075;BME280;26529;51.530;11.754;2023-04-27T04:45:01;100481.50;;;19.78;45.73
40075;BME280;26529;51.530;11.754;2023-04-27T04:47:28;100475.44;;;19.76;44.69
40075;BME280;26529;51.530;11.754;2023-04-27T04:49:56;100471.81;;;19.77;44.54
40075;BME280;26529;51.530;11.754;2023-04-27T04:52:22;100472.56;;;19.79;44.68
40075;BME280;26529;51.530;11.754;2023-04-27T04:54:50;100467.16;;;19.81;44.95
40075;BME280;26529;51.530;11.754;2023-04-27T04:57:17;100471.63;;;19.80;45.23
40075;BME280;26529;51.530;11.754;2023-04-27T04:59:42;100467.16;;;19.81;45.39
40075;BME280;26529;51.530;11.754;2023-04-27T05:02:08;100468.00;;;19.82;45.44
40075;BME280;26529;51.530;11.754;2023-04-27T05:04:33;100474.19;;;19.82;45.56
40075;BME280;26529;51.530;11.754;2023-04-27T05:06:59;100475.06;;;19.83;45.24
40075;BME280;26529;51.530;11.754;2023-04-27T05:09:24;100475.97;;;19.82;45.66
40075;BME280;26529;51.530;11.754;2023-04-27T05:11:50;100479.50;;;19.82;45.62
40075;BME280;26529;51.530;11.754;2023-04-27T05:14:16;100479.41;;;19.84;45.60
40075;BME280;26529;51.530;11.754;2023-04-27T05:16:41;100482.91;;;19.84;45.62
40075;BME280;26529;51.530;11.754;2023-04-27T05:19:07;100473.31;;;19.82;44.90
40075;BME280;26529;51.530;11.754;2023-04-27T05:21:33;100475.97;;;19.82;45.06
40075;BME280;26529;51.530;11.754;2023-04-27T05:23:58;100480.38;;;19.83;45.38
40075;BME280;26529;51.530;11.754;2023-04-27T05:26:24;100465.34;;;19.82;44.54
40075;BME280;26529;51.530;11.754;2023-04-27T05:28:49;100473.31;;;19.82;44.64
40075;BME280;26529;51.530;11.754;2023-04-27T05:31:15;100473.31;;;19.82;44.79
40075;BME280;26529;51.530;11.754;2023-04-27T05:33:41;100475.16;;;19.81;45.05
40075;BME280;26529;51.530;11.754;2023-04-27T05:36:06;100477.72;;;19.83;45.11
40075;BME280;26529;51.530;11.754;2023-04-27T05:38:32;100469.72;;;19.83;45.28
40075;BME280;26529;51.530;11.754;2023-04-27T05:41:00;100487.50;;;19.82;45.42
40075;BME280;26529;51.530;11.754;2023-04-27T05:43:26;100482.16;;;19.82;45.55
40075;BME280;26529;51.530;11.754;2023-04-27T05:45:52;100483.03;;;19.83;45.61
40075;BME280;26529;51.530;11.754;2023-04-27T05:48:18;100489.19;;;19.83;45.69
40075;BME280;26529;51.530;11.754;2023-04-27T05:50:44;100485.69;;;19.83;45.60
40075;BME280;26529;51.530;11.754;2023-04-27T05:53:09;100492.72;;;19.84;45.66
40075;BME280;26529;51.530;11.754;2023-04-27T05:55:35;100483.03;;;19.83;45.60
40075;BME280;26529;51.530;11.754;2023-04-27T05:58:02;100490.06;;;19.84;45.64
40075;BME280;26529;51.530;11.754;2023-04-27T06:00:28;100500.72;;;19.84;45.83
40075;BME280;26529;51.530;11.754;2023-04-27T06:02:53;100497.09;;;19.85;45.73
40075;BME280;26529;51.530;11.754;2023-04-27T06:05:19;100494.44;;;19.85;45.66
40075;BME280;26529;51.530;11.754;2023-04-27T06:07:46;100502.41;;;19.85;45.71
40075;BME280;26529;51.530;11.754;2023-04-27T06:10:11;100508.59;;;19.85;45.63
40075;BME280;26529;51.530;11.754;2023-04-27T06:12:37;100501.47;;;19.86;45.62
40075;BME280;26529;51.530;11.754;2023-04-27T06:15:04;100511.16;;;19.87;45.65
40075;BME280;26529;51.530;11.754;2023-04-27T06:17:36;100505.00;;;19.86;45.57
40075;BME280;26529;51.530;11.754;2023-04-27T06:20:02;100505.00;;;19.86;45.67
40075;BME280;26529;51.530;11.754;2023-04-27T06:22:31;100501.38;;;19.87;45.61
40075;BME280;26529;51.530;11.754;2023-04-27T06:24:57;100506.69;;;19.87;45.64
40075;BME280;26529;51.530;11.754;2023-04-27T06:27:22;100512.84;;;19.88;45.83
40075;BME280;26529;51.530;11.754;2023-04-27T06:29:48;100516.47;;;19.87;45.54
40075;BME280;26529;51.530;11.754;2023-04-27T06:32:13;100519.91;;;19.89;45.56
40075;BME280;26529;51.530;11.754;2023-04-27T06:34:39;100526.16;;;19.88;45.65
40075;BME280;26529;51.530;11.754;2023-04-27T06:37:04;100522.56;;;19.89;45.69
40075;BME280;26529;51.530;11.754;2023-04-27T06:39:30;100518.94;;;19.90;45.62
40075;BME280;26529;51.530;11.754;2023-04-27T06:41:56;100514.59;;;19.89;45.70
40075;BME280;26529;51.530;11.754;2023-04-27T06:44:24;100520.75;;;19.89;45.83
40075;BME280;26529;51.530;11.754;2023-04-27T06:46:49;100529.59;;;19.90;45.71
40075;BME280;26529;51.530;11.754;2023-04-27T06:49:15;100533.97;;;19.91;45.85
40075;BME280;26529;51.530;11.754;2023-04-27T06:51:41;100523.31;;;19.91;45.77
40075;BME280;26529;51.530;11.754;2023-04-27T06:54:06;100522.38;;;19.92;45.80
40075;BME280;26529;51.530;11.754;2023-04-27T06:56:32;100525.13;;;19.90;45.94
40075;BME280;26529;51.530;11.754;2023-04-27T06:58:57;100527.69;;;19.92;45.89
40075;BME280;26529;51.530;11.754;2023-04-27T07:01:23;100528.63;;;19.91;45.75
40075;BME280;26529;51.530;11.754;2023-04-27T07:03:49;100536.53;;;19.92;45.90
40075;BME280;26529;51.530;11.754;2023-04-27T07:06:15;100525.03;;;19.92;45.91
40075;BME280;26529;51.530;11.754;2023-04-27T07:08:41;100531.22;;;19.92;45.91
40075;BME280;26529;51.530;11.754;2023-04-27T07:11:07;100532.91;;;19.93;46.07
40075;BME280;26529;51.530;11.754;2023-04-27T07:13:32;100532.06;;;19.93;45.93
40075;BME280;26529;51.530;11.754;2023-04-27T07:15:58;100532.06;;;19.93;46.00
40075;BME280;26529;51.530;11.754;2023-04-27T07:18:25;100536.41;;;19.94;45.79
40075;BME280;26529;51.530;11.754;2023-04-27T07:20:53;100531.09;;;19.94;45.96
40075;BME280;26529;51.530;11.754;2023-04-27T07:23:18;100531.09;;;19.94;45.83
40075;BME280;26529;51.530;11.754;2023-04-27T07:25:44;100534.63;;;19.95;46.04
40075;BME280;26529;51.530;11.754;2023-04-27T07:28:11;100533.75;;;19.94;45.88
40075;BME280;26529;51.530;11.754;2023-04-27T07:30:37;100531.09;;;19.94;46.00
40075;BME280;26529;51.530;11.754;2023-04-27T07:33:03;100532.84;;;19.95;45.86
40075;BME280;26529;51.530;11.754;2023-04-27T07:35:28;100535.50;;;19.95;45.79
40075;BME280;26529;51.530;11.754;2023-04-27T07:37:54;100534.56;;;19.96;46.04
40075;BME280;26529;51.530;11.754;2023-04-27T07:40:21;100529.13;;;19.98;45.79
40075;BME280;26529;51.530;11.754;2023-04-27T07:42:48;100534.44;;;19.98;45.85
40075;BME280;26529;51.530;11.754;2023-04-27T07:45:14;100539.78;;;19.98;45.78
40075;BME280;26529;51.530;11.754;2023-04-27T07:47:41;100541.59;;;19.97;45.87
40075;BME280;26529;51.530;11.754;2023-04-27T07:50:08;100549.56;;;19.97;45.85
40075;BME280;26529;51.530;11.754;2023-04-27T07:52:34;100556.59;;;19.98;45.86
40075;BME280;26529;51.530;11.754;2023-04-27T07:55:00;100555.66;;;19.99;45.81
40075;BME280;26529;51.530;11.754;2023-04-27T07:57:26;100553.84;;;20.00;45.84
40075;BME280;26529;51.530;11.754;2023-04-27T07:59:52;100560.97;;;19.99;45.70
40075;BME280;26529;51.530;11.754;2023-04-27T08:02:17;100558.31;;;19.99;45.86
40075;BME280;26529;51.530;11.754;2023-04-27T08:04:43;100555.66;;;19.99;45.95
40075;BME280;26529;51.530;11.754;2023-04-27T08:07:08;100549.38;;;20.00;45.85
40075;BME280;26529;51.530;11.754;2023-04-27T08:09:34;100552.03;;;20.00;45.82
40075;BME280;26529;51.530;11.754;2023-04-27T08:11:59;100543.09;;;20.01;45.73
40075;BME280;26529;51.530;11.754;2023-04-27T08:14:27;100545.75;;;20.01;45.71
40075;BME280;26529;51.530;11.754;2023-04-27T08:16:52;100543.88;;;20.03;45.70
40075;BME280;26529;51.530;11.754;2023-04-27T08:19:18;100547.50;;;20.02;45.89
40075;BME280;26529;51.530;11.754;2023-04-27T08:21:43;100546.41;;;20.05;45.81
40075;BME280;26529;51.530;11.754;2023-04-27T08:24:09;100538.56;;;20.03;45.81
40075;BME280;26529;51.530;11.754;2023-04-27T08:26:34;100549.00;;;20.06;45.89
40075;BME280;26529;51.530;11.754;2023-04-27T08:29:01;100541.00;;;20.06;45.75
40075;BME280;26529;51.530;11.754;2023-04-27T08:31:27;100543.66;;;20.06;45.89
40075;BME280;26529;51.530;11.754;2023-04-27T08:33:52;100549.84;;;20.07;45.95
40075;BME280;26529;51.530;11.754;2023-04-27T08:36:20;100549.75;;;20.09;45.84
40075;BME280;26529;51.530;11.754;2023-04-27T08:38:49;100548.81;;;20.10;45.97
40075;BME280;26529;51.530;11.754;2023-04-27T08:41:19;100549.66;;;20.10;45.66
40075;BME280;26529;51.530;11.754;2023-04-27T08:43:46;100554.13;;;20.10;45.80
40075;BME280;26529;51.530;11.754;2023-04-27T08:46:20;100548.69;;;20.11;45.71
40075;BME280;26529;51.530;11.754;2023-04-27T08:48:49;100545.94;;;20.13;45.72
40075;BME280;26529;51.530;11.754;2023-04-27T08:51:16;100539.78;;;20.12;45.67
40075;BME280;26529;51.530;11.754;2023-04-27T08:53:50;100545.84;;;20.14;45.58
40075;BME280;26529;51.530;11.754;2023-04-27T08:56:19;100536.03;;;20.15;45.62
40075;BME280;26529;51.530;11.754;2023-04-27T08:58:48;100541.38;;;20.15;45.67
40075;BME280;26529;51.530;11.754;2023-04-27T09:01:14;100535.19;;;20.14;45.72
40075;BME280;26529;51.530;11.754;2023-04-27T09:03:40;100537.94;;;20.13;45.70
40075;BME280;26529;51.530;11.754;2023-04-27T09:06:06;100539.66;;;20.14;45.62
40075;BME280;26529;51.530;11.754;2023-04-27T09:08:48;100539.66;;;20.14;45.64
40075;BME280;26529;51.530;11.754;2023-04-27T09:11:15;100539.47;;;20.17;45.40
40075;BME280;26529;51.530;11.754;2023-04-27T09:13:42;100537.78;;;20.16;45.63
40075;BME280;26529;51.530;11.754;2023-04-27T09:16:12;100546.50;;;20.18;45.56
40075;BME280;26529;51.530;11.754;2023-04-27T09:18:42;100541.19;;;20.18;45.54
40075;BME280;26529;51.530;11.754;2023-04-27T09:21:07;100537.56;;;20.19;45.52
40075;BME280;26529;51.530;11.754;2023-04-27T09:23:36;100527.88;;;20.18;45.62
40075;BME280;26529;51.530;11.754;2023-04-27T09:26:04;100531.28;;;20.20;45.58
40075;BME280;26529;51.530;11.754;2023-04-27T09:28:33;100525.00;;;20.21;45.47
40075;BME280;26529;51.530;11.754;2023-04-27T09:31:01;100516.06;;;20.22;45.48
40075;BME280;26529;51.530;11.754;2023-04-27T09:33:31;100516.91;;;20.23;45.41
40075;BME280;26529;51.530;11.754;2023-04-27T09:35:59;100514.34;;;20.21;45.41
40075;BME280;26529;51.530;11.754;2023-04-27T09:38:25;100516.06;;;20.22;45.21
40075;BME280;26529;51.530;11.754;2023-04-27T09:40:52;100515.00;;;20.25;45.32
40075;BME280;26529;51.530;11.754;2023-04-27T09:43:18;100521.19;;;20.25;45.36
40075;BME280;26529;51.530;11.754;2023-04-27T09:45:44;100515.88;;;20.25;45.33
40075;BME280;26529;51.530;11.754;2023-04-27T09:48:10;100519.28;;;20.27;45.31
40075;BME280;26529;51.530;11.754;2023-04-27T09:50:38;100514.91;;;20.26;45.61
40075;BME280;26529;51.530;11.754;2023-04-27T09:53:05;100521.19;;;20.25;45.47
40075;BME280;26529;51.530;11.754;2023-04-27T09:55:36;100521.19;;;20.25;45.27
40075;BME280;26529;51.530;11.754;2023-04-27T10:03:32;100508.63;;;20.27;45.43
40075;BME280;26529;51.530;11.754;2023-04-27T10:06:34;100505.22;;;20.25;45.40
40075;BME280;26529;51.530;11.754;2023-04-27T10:09:06;100505.22;;;20.25;45.46
40075;BME280;26529;51.530;11.754;2023-04-27T10:11:37;100505.22;;;20.25;45.44
40075;BME280;26529;51.530;11.754;2023-04-27T10:14:07;100505.22;;;20.25;45.40
40075;BME280;26529;51.530;11.754;2023-04-27T10:16:53;100507.88;;;20.25;45.26
40075;BME280;26529;51.530;11.754;2023-04-27T10:19:20;100508.84;;;20.24;45.21
40075;BME280;26529;51.530;11.754;2023-04-27T10:21:59;100506.09;;;20.26;45.35
40075;BME280;26529;51.530;11.754;2023-04-27T10:24:38;100513.97;;;20.27;45.32
40075;BME280;26529;51.530;11.754;2023-04-27T10:27:06;100510.47;;;20.27;45.36
40075;BME280;26529;51.530;11.754;2023-04-27T10:29:42;100503.31;;;20.27;45.39
40075;BME280;26529;51.530;11.754;2023-04-27T10:32:11;100501.59;;;20.26;45.38
40075;BME280;26529;51.530;11.754;2023-04-27T10:34:38;100501.59;;;20.26;45.36
40075;BME280;26529;51.530;11.754;2023-04-27T10:37:09;100493.63;;;20.26;45.33
40075;BME280;26529;51.530;11.754;2023-04-27T10:39:40;100495.31;;;20.27;45.30
40075;BME280;26529;51.530;11.754;2023-04-27T10:42:06;100496.28;;;20.26;45.32
40075;BME280;26529;51.530;11.754;2023-04-27T10:44:33;100499.81;;;20.27;45.37
40075;BME280;26529;51.530;11.754;2023-04-27T10:47:01;100498.84;;;20.28;45.32
40075;BME280;26529;51.530;11.754;2023-04-27T10:49:28;100501.50;;;20.28;45.44
40075;BME280;26529;51.530;11.754;2023-04-27T10:51:56;100506.75;;;20.29;45.35
40075;BME280;26529;51.530;11.754;2023-04-27T10:54:26;100500.56;;;20.29;45.11
40075;BME280;26529;51.530;11.754;2023-04-27T10:56:53;100506.75;;;20.29;45.29
40075;BME280;26529;51.530;11.754;2023-04-27T10:59:19;100501.41;;;20.29;45.29
40075;BME280;26529;51.530;11.754;2023-04-27T11:01:48;100498.84;;;20.28;45.52
40075;BME280;26529;51.530;11.754;2023-04-27T11:04:15;100497.03;;;20.28;45.32
40075;BME280;26529;51.530;11.754;2023-04-27T11:06:43;100493.31;;;20.31;45.23
40075;BME280;26529;51.530;11.754;2023-04-27T11:09:11;100492.25;;;20.33;45.32
40075;BME280;26529;51.530;11.754;2023-04-27T11:11:37;100491.41;;;20.33;45.10
40075;BME280;26529;51.530;11.754;2023-04-27T11:14:02;100491.41;;;20.33;45.04
40075;BME280;26529;51.530;11.754;2023-04-27T11:16:29;100496.75;;;20.33;45.29
40075;BME280;26529;51.530;11.754;2023-04-27T11:18:55;100493.22;;;20.32;45.31
40075;BME280;26529;51.530;11.754;2023-04-27T11:21:28;100496.75;;;20.33;45.31
40075;BME280;26529;51.530;11.754;2023-04-27T11:23:53;100492.25;;;20.33;45.33
40075;BME280;26529;51.530;11.754;2023-04-27T11:26:22;100493.13;;;20.34;45.15
40075;BME280;26529;51.530;11.754;2023-04-27T11:29:00;100490.47;;;20.34;45.19
40075;BME280;26529;51.530;11.754;2023-04-27T11:31:42;100479.91;;;20.32;45.29
40075;BME280;26529;51.530;11.754;2023-04-27T11:36:40;100485.22;;;20.32;45.15
40075;BME280;26529;51.530;11.754;2023-04-27T11:39:06;100483.31;;;20.34;44.88
40075;BME280;26529;51.530;11.754;2023-04-27T11:41:35;100484.28;;;20.33;45.16
40075;BME280;26529;51.530;11.754;2023-04-27T11:44:05;100486.94;;;20.33;45.18
40075;BME280;26529;51.530;11.754;2023-04-27T11:46:33;100488.63;;;20.34;45.41
40075;BME280;26529;51.530;11.754;2023-04-27T11:49:02;100485.13;;;20.34;45.73
40075;BME280;26529;51.530;11.754;2023-04-27T11:51:31;100483.03;;;20.39;45.43
40075;BME280;26529;51.530;11.754;2023-04-27T11:54:06;100481.03;;;20.43;45.22
40075;BME280;26529;51.530;11.754;2023-04-27T11:56:38;100481.75;;;20.45;45.20
40075;BME280;26529;51.530;11.754;2023-04-27T11:59:04;100488.06;;;20.44;45.53
40075;BME280;26529;51.530;11.754;2023-04-27T12:01:33;100486.22;;;20.44;45.23
40075;BME280;26529;51.530;11.754;2023-04-27T12:04:00;100487.09;;;20.45;45.33
40075;BME280;26529;51.530;11.754;2023-04-27T12:06:27;100492.41;;;20.45;45.28
40075;BME280;26529;51.530;11.754;2023-04-27T12:08:55;100489.66;;;20.46;45.43
40075;BME280;26529;51.530;11.754;2023-04-27T12:11:20;100483.28;;;20.49;45.38
40075;BME280;26529;51.530;11.754;2023-04-27T12:13:46;100480.41;;;20.52;45.47
40075;BME280;26529;51.530;11.754;2023-04-27T12:16:12;100475.72;;;20.56;45.28
40075;BME280;26529;51.530;11.754;2023-04-27T12:18:38;100469.34;;;20.58;45.21
40075;BME280;26529;51.530;11.754;2023-04-27T12:21:04;100467.31;;;20.62;45.39
40075;BME280;26529;51.530;11.754;2023-04-27T12:23:32;100467.22;;;20.64;45.31
40075;BME280;26529;51.530;11.754;2023-04-27T12:25:58;100468.06;;;20.64;45.27
40075;BME280;26529;51.530;11.754;2023-04-27T12:28:23;100475.22;;;20.64;45.36
40075;BME280;26529;51.530;11.754;2023-04-27T12:30:49;100467.31;;;20.62;45.51
40075;BME280;26529;51.530;11.754;2023-04-27T12:33:15;100467.22;;;20.64;45.34
40075;BME280;26529;51.530;11.754;2023-04-27T12:35:40;100464.34;;;20.67;45.26
40075;BME280;26529;51.530;11.754;2023-04-27T12:38:06;100468.72;;;20.68;45.39
40075;BME280;26529;51.530;11.754;2023-04-27T12:40:32;100469.66;;;20.67;45.39
40075;BME280;26529;51.530;11.754;2023-04-27T12:42:58;100464.25;;;20.68;45.32
40075;BME280;26529;51.530;11.754;2023-04-27T12:45:24;100473.84;;;20.71;45.17
40075;BME280;26529;51.530;11.754;2023-04-27T12:47:50;100468.53;;;20.71;45.19